createdAt,value
2023-04-28T00:00:41.603Z,14.35
2023-04-28T00:03:28.528Z,11.95
2023-04-28T00:06:14.765Z,16.98
2023-04-28T00:09:00.396Z,15.05
2023-04-28T00:11:46.871Z,15.45
2023-04-28T00:14:32.646Z,16.15
2023-04-28T00:17:18.034Z,15.70
2023-04-28T00:20:03.761Z,24.15
2023-04-28T00:22:50.455Z,13.45
2023-04-28T00:25:37.085Z,15.20
2023-04-28T00:28:33.672Z,16.38
2023-04-28T00:31:20.187Z,17.08
2023-04-28T00:34:05.681Z,18.95
2023-04-28T00:36:51.912Z,15.02
2023-04-28T00:39:37.464Z,17.63
2023-04-28T00:42:23.494Z,15.65
2023-04-28T00:45:09.547Z,15.68
2023-04-28T00:47:55.407Z,15.68
2023-04-28T00:50:42.627Z,16.38
2023-04-28T00:53:28.545Z,17.13
2023-04-28T00:56:14.294Z,17.27
2023-04-28T00:58:59.921Z,16.80
2023-04-28T01:01:45.693Z,14.73
2023-04-28T01:04:31.827Z,13.63
2023-04-28T01:07:17.664Z,15.52
2023-04-28T01:10:03.568Z,14.25
2023-04-28T01:12:51.069Z,14.38
2023-04-28T01:15:36.455Z,17.90
2023-04-28T01:18:23.010Z,17.63
2023-04-28T01:21:08.888Z,21.92
2023-04-28T01:23:56.375Z,17.15
2023-04-28T01:26:41.905Z,14.57
2023-04-28T01:29:28.049Z,16.17
2023-04-28T01:32:13.849Z,15.93
2023-04-28T01:34:59.849Z,19.42
2023-04-28T01:37:46.166Z,13.75
2023-04-28T01:40:31.947Z,16.15
2023-04-28T01:43:17.502Z,14.85
2023-04-28T01:46:02.903Z,13.55
2023-04-28T01:48:50.453Z,11.95
2023-04-28T01:51:36.183Z,17.33
2023-04-28T01:54:22.251Z,16.00
2023-04-28T01:57:08.650Z,17.40
2023-04-28T01:59:55.018Z,17.17
2023-04-28T02:02:41.051Z,18.95
2023-04-28T02:05:27.027Z,21.35
2023-04-28T02:08:12.899Z,20.30
2023-04-28T02:10:58.997Z,19.83
2023-04-28T02:13:44.660Z,19.02
2023-04-28T02:16:30.826Z,22.85
2023-04-28T02:19:16.578Z,23.30
2023-04-28T02:22:02.374Z,21.35
2023-04-28T02:24:47.961Z,24.27
2023-04-28T02:27:36.730Z,25.65
2023-04-28T02:30:22.628Z,21.10
2023-04-28T02:33:08.347Z,22.00
2023-04-28T02:35:59.829Z,19.55
2023-04-28T02:38:45.779Z,20.73
2023-04-28T02:41:31.733Z,19.20
2023-04-28T02:44:18.221Z,20.00
2023-04-28T02:47:04.320Z,27.15
2023-04-28T02:49:50.175Z,23.58
2023-04-28T02:52:36.059Z,21.30
2023-04-28T02:55:24.318Z,22.45
2023-04-28T02:58:11.517Z,20.42
2023-04-28T03:00:57.007Z,19.20
2023-04-28T03:03:42.623Z,21.85
2023-04-28T03:06:28.411Z,22.27
2023-04-28T03:09:14.481Z,24.40
2023-04-28T03:11:59.781Z,22.92
2023-04-28T03:14:45.114Z,23.55
2023-04-28T03:17:30.597Z,22.80
2023-04-28T03:20:16.247Z,20.25
2023-04-28T03:23:02.684Z,20.23
2023-04-28T03:25:48.150Z,24.25
2023-04-28T03:28:33.917Z,23.73
2023-04-28T03:31:19.805Z,23.77
2023-04-28T03:34:05.380Z,24.77
2023-04-28T03:36:51.510Z,21.65
2023-04-28T03:39:44.090Z,23.88
2023-04-28T03:42:29.533Z,24.67
2023-04-28T03:45:28.631Z,32.17
2023-04-28T03:48:14.571Z,25.98
2023-04-28T03:51:00.535Z,24.27
2023-04-28T03:53:46.671Z,23.92
2023-04-28T03:56:33.091Z,25.23
2023-04-28T03:59:20.309Z,24.67
2023-04-28T04:02:06.585Z,24.92
2023-04-28T04:04:52.393Z,23.90
2023-04-28T04:07:38.145Z,30.00
2023-04-28T04:10:26.975Z,27.33
2023-04-28T04:13:12.741Z,29.90
2023-04-28T04:15:58.422Z,25.98
2023-04-28T04:18:44.367Z,25.27
2023-04-28T04:21:42.028Z,22.58
2023-04-28T04:24:27.570Z,21.20
2023-04-28T04:27:13.258Z,21.30
2023-04-28T04:30:00.248Z,20.65
2023-04-28T04:32:46.122Z,22.05
2023-04-28T04:35:31.993Z,25.67
2023-04-28T04:38:17.923Z,24.83
2023-04-28T04:41:03.415Z,26.90
2023-04-28T04:43:49.433Z,27.73
2023-04-28T04:46:36.005Z,28.98
2023-04-28T04:49:21.813Z,24.55
2023-04-28T04:52:08.377Z,24.85
2023-04-28T04:54:53.987Z,21.95
2023-04-28T04:57:39.495Z,24.90
2023-04-28T05:00:44.407Z,24.10
2023-04-28T05:03:30.672Z,23.40
2023-04-28T05:06:17.774Z,20.98
2023-04-28T05:09:07.047Z,20.10
2023-04-28T05:11:52.754Z,20.30
2023-04-28T05:14:38.021Z,19.90
2023-04-28T05:17:23.581Z,19.27
2023-04-28T05:20:12.663Z,21.00
2023-04-28T05:22:58.446Z,22.42
2023-04-28T05:25:44.897Z,20.73
2023-04-28T05:28:31.159Z,21.17
2023-04-28T05:31:17.716Z,20.27
2023-04-28T05:34:03.526Z,20.23
2023-04-28T05:36:49.186Z,18.50
2023-04-28T05:39:36.523Z,18.58
2023-04-28T05:42:23.777Z,19.70
2023-04-28T05:45:09.620Z,20.45
2023-04-28T05:47:55.944Z,19.98
2023-04-28T05:50:42.177Z,25.55
2023-04-28T05:53:29.090Z,50.38
2023-04-28T05:56:16.282Z,19.73
2023-04-28T05:59:04.395Z,19.98
2023-04-28T06:01:51.561Z,17.92
2023-04-28T06:04:38.664Z,17.83
2023-04-28T06:07:25.649Z,17.30
2023-04-28T06:10:17.021Z,18.02
2023-04-28T06:13:04.914Z,16.55
2023-04-28T06:15:50.793Z,17.23
2023-04-28T06:18:37.174Z,17.60
2023-04-28T06:21:25.027Z,16.90
2023-04-28T06:24:10.806Z,15.10
2023-04-28T06:26:58.326Z,13.85
2023-04-28T06:29:45.365Z,13.68
2023-04-28T06:32:32.177Z,13.77
2023-04-28T06:35:17.743Z,14.48
2023-04-28T06:38:04.678Z,13.23
2023-04-28T06:40:50.542Z,14.02
2023-04-28T06:43:35.807Z,12.70
2023-04-28T06:46:26.828Z,10.80
2023-04-28T06:49:18.399Z,13.50
2023-04-28T06:52:03.998Z,12.85
2023-04-28T06:54:50.822Z,12.65
2023-04-28T06:57:37.840Z,11.18
2023-04-28T07:00:24.530Z,10.85
2023-04-28T07:03:10.353Z,10.25
2023-04-28T07:05:56.193Z,10.77
2023-04-28T07:08:41.779Z,9.90
2023-04-28T07:11:27.327Z,11.65
2023-04-28T07:14:12.530Z,10.27
2023-04-28T07:16:58.884Z,9.57
2023-04-28T07:19:44.703Z,9.73
2023-04-28T07:22:30.135Z,9.63
2023-04-28T07:25:16.042Z,9.13
2023-04-28T07:28:03.622Z,8.13
2023-04-28T07:30:49.185Z,8.80
2023-04-28T07:33:34.878Z,7.72
2023-04-28T07:36:20.822Z,7.53
2023-04-28T07:39:07.008Z,7.00
2023-04-28T07:41:52.443Z,6.22
2023-04-28T07:44:38.323Z,5.60
2023-04-28T07:47:24.099Z,6.70
2023-04-28T07:50:12.560Z,6.30
2023-04-28T07:52:58.772Z,6.05
2023-04-28T07:55:45.887Z,6.97
2023-04-28T07:58:31.507Z,3.42
2023-04-28T08:01:17.142Z,4.82
2023-04-28T08:04:03.023Z,4.72
2023-04-28T08:06:48.546Z,5.20
2023-04-28T08:09:35.543Z,4.15
2023-04-28T08:12:22.044Z,4.72
2023-04-28T08:15:09.109Z,4.75
2023-04-28T08:17:55.019Z,3.97
2023-04-28T08:20:41.618Z,4.15
2023-04-28T08:23:28.455Z,4.18
2023-04-28T08:26:15.735Z,3.00
2023-04-28T08:29:01.525Z,3.42
2023-04-28T08:31:46.859Z,2.60
2023-04-28T08:34:33.067Z,3.13
2023-04-28T08:37:18.529Z,2.78
2023-04-28T08:40:09.566Z,2.63
2023-04-28T08:42:55.476Z,2.67
2023-04-28T08:45:45.818Z,3.22
2023-04-28T08:48:34.522Z,2.80
2023-04-28T08:51:29.231Z,3.28
2023-04-28T08:54:25.648Z,2.55
2023-04-28T08:57:15.073Z,1.88
2023-04-28T09:00:00.774Z,3.55
2023-04-28T09:02:45.948Z,2.05
2023-04-28T09:05:32.245Z,1.27
2023-04-28T09:08:18.897Z,1.45
2023-04-28T09:11:13.604Z,3.00
2023-04-28T09:14:12.598Z,2.80
2023-04-28T09:16:57.935Z,2.20
2023-04-28T09:19:43.542Z,2.88
2023-04-28T09:22:29.594Z,2.63
2023-04-28T09:25:16.218Z,2.78
2023-04-28T09:28:19.989Z,1.45
2023-04-28T09:31:05.386Z,2.40
2023-04-28T09:34:00.566Z,2.25
2023-04-28T09:36:45.966Z,3.75
2023-04-28T09:39:31.833Z,2.50
2023-04-28T09:42:36.597Z,2.50
2023-04-28T09:45:22.243Z,1.20
2023-04-28T09:48:13.534Z,3.15
2023-04-28T09:51:00.457Z,1.88
2023-04-28T09:53:46.477Z,3.17
2023-04-28T09:56:34.810Z,4.05
2023-04-28T09:59:21.607Z,2.35
2023-04-28T10:05:22.673Z,0.85
2023-04-28T10:08:08.888Z,3.42
2023-04-28T10:10:56.920Z,3.67
2023-04-28T10:13:44.033Z,3.25
2023-04-28T10:16:33.216Z,2.95
2023-04-28T10:19:18.814Z,2.00
2023-04-28T10:22:23.490Z,2.65
2023-04-28T10:25:12.221Z,2.78
2023-04-28T10:27:58.790Z,2.90
2023-04-28T10:31:10.034Z,2.25
2023-04-28T10:33:55.604Z,2.30
2023-04-28T10:36:52.756Z,1.30
2023-04-28T10:39:38.527Z,3.05
2023-04-28T10:42:51.436Z,1.90
2023-04-28T10:45:49.439Z,1.65
2023-04-28T10:48:36.953Z,2.55
2023-04-28T10:51:22.773Z,2.03
2023-04-28T10:54:08.852Z,2.45
2023-04-28T10:57:17.573Z,2.42
2023-04-28T11:00:28.583Z,2.95
2023-04-28T11:03:42.640Z,2.85
2023-04-28T11:06:40.023Z,2.75
2023-04-28T11:09:31.502Z,1.92
2023-04-28T11:12:19.182Z,1.90
2023-04-28T11:15:12.880Z,2.58
2023-04-28T11:17:59.634Z,1.80
2023-04-28T11:20:49.895Z,2.38
2023-04-28T11:23:35.617Z,1.73
2023-04-28T11:26:21.200Z,2.78
2023-04-28T11:29:06.638Z,2.53
2023-04-28T11:31:52.527Z,1.83
2023-04-28T11:34:38.431Z,2.08
2023-04-28T11:37:23.772Z,3.13
2023-04-28T11:40:13.353Z,1.95
2023-04-28T11:43:00.120Z,1.73
2023-04-28T11:45:49.162Z,2.35
2023-04-28T11:51:35.015Z,2.47
2023-04-28T11:54:25.894Z,2.58
2023-04-28T11:57:21.485Z,2.67
2023-04-28T12:00:15.231Z,1.67
2023-04-28T12:03:08.359Z,2.75
2023-04-28T12:05:53.922Z,0.77
2023-04-28T12:08:39.359Z,0.75
2023-04-28T12:11:25.717Z,1.00
2023-04-28T12:14:11.557Z,1.67
2023-04-28T12:16:58.514Z,2.65
2023-04-28T12:19:45.709Z,2.65
2023-04-28T12:22:31.525Z,2.50
2023-04-28T12:25:19.473Z,2.25
2023-04-28T12:28:07.599Z,2.20
2023-04-28T12:31:08.377Z,1.67
2023-04-28T12:33:54.118Z,2.05
2023-04-28T12:36:39.420Z,2.00
2023-04-28T12:39:26.203Z,1.92
2023-04-28T12:42:12.235Z,2.13
2023-04-28T12:44:57.890Z,2.17
2023-04-28T12:47:43.753Z,1.85
2023-04-28T12:50:32.428Z,1.45
2023-04-28T12:53:18.075Z,2.80
2023-04-28T12:56:03.349Z,2.83
2023-04-28T12:58:48.728Z,2.75
2023-04-28T13:01:34.201Z,1.73
2023-04-28T13:04:20.252Z,1.50
2023-04-28T13:07:07.381Z,2.33
2023-04-28T13:09:54.155Z,1.83
2023-04-28T13:12:39.480Z,2.20
2023-04-28T13:15:24.925Z,2.60
2023-04-28T13:18:10.425Z,2.00
2023-04-28T13:20:55.892Z,1.30
2023-04-28T13:23:42.795Z,2.05
2023-04-28T13:26:28.330Z,2.42
2023-04-28T13:29:14.507Z,2.08
2023-04-28T13:31:59.919Z,2.00
2023-04-28T13:34:46.086Z,1.48
2023-04-28T13:37:32.225Z,1.05
2023-04-28T13:40:18.081Z,1.63
2023-04-28T13:43:04.168Z,2.40
2023-04-28T13:45:50.386Z,2.50
2023-04-28T13:48:36.317Z,1.92
2023-04-28T13:51:21.668Z,2.67
2023-04-28T13:54:11.608Z,2.55
2023-04-28T13:56:57.403Z,1.02
2023-04-28T13:59:42.926Z,1.17
2023-04-28T14:02:28.947Z,2.35
2023-04-28T14:05:14.959Z,1.20
2023-04-28T14:08:01.803Z,1.92
2023-04-28T14:10:48.416Z,1.08
2023-04-28T14:13:33.919Z,2.90
2023-04-28T14:16:19.251Z,1.40
2023-04-28T14:19:04.573Z,2.13
2023-04-28T14:21:50.431Z,1.80
2023-04-28T14:24:35.997Z,2.13
2023-04-28T14:27:22.358Z,3.00
2023-04-28T14:30:08.877Z,1.40
2023-04-28T14:32:55.047Z,2.22
2023-04-28T14:35:41.579Z,2.75
2023-04-28T14:38:27.852Z,2.75
2023-04-28T14:41:13.305Z,2.70
2023-04-28T14:44:17.784Z,2.30
2023-04-28T14:47:03.361Z,2.63
2023-04-28T14:49:48.944Z,2.78
2023-04-28T14:52:35.083Z,1.27
2023-04-28T14:55:20.476Z,2.38
2023-04-28T14:58:05.987Z,2.70
2023-04-28T15:00:53.227Z,2.28
2023-04-28T15:03:39.189Z,2.50
2023-04-28T15:06:24.747Z,2.38
2023-04-28T15:09:10.779Z,2.80
2023-04-28T15:11:56.342Z,3.03
2023-04-28T15:14:41.711Z,2.75
2023-04-28T15:17:27.785Z,3.00
2023-04-28T15:20:13.244Z,2.55
2023-04-28T15:22:59.777Z,1.50
2023-04-28T15:25:45.725Z,2.33
2023-04-28T15:28:31.367Z,2.88
2023-04-28T15:31:36.190Z,2.65
2023-04-28T15:34:21.579Z,2.88
2023-04-28T15:37:41.510Z,2.47
2023-04-28T15:40:26.878Z,2.88
2023-04-28T15:43:13.398Z,2.95
2023-04-28T15:45:59.704Z,3.50
2023-04-28T15:48:44.977Z,2.65
2023-04-28T15:51:30.280Z,3.05
2023-04-28T15:54:15.664Z,2.58
2023-04-28T15:57:01.697Z,2.45
2023-04-28T15:59:47.158Z,2.60
2023-04-28T16:02:33.026Z,2.80
2023-04-28T16:05:18.852Z,3.20
2023-04-28T16:08:04.530Z,3.00
2023-04-28T16:10:50.470Z,3.47
2023-04-28T16:13:37.208Z,3.42
2023-04-28T16:16:23.330Z,3.15
2023-04-28T16:19:10.007Z,3.47
2023-04-28T16:21:55.628Z,3.03
2023-04-28T16:24:43.835Z,3.15
2023-04-28T16:27:30.059Z,3.63
2023-04-28T16:30:15.720Z,3.53
2023-04-28T16:33:01.438Z,3.40
2023-04-28T16:35:54.793Z,3.72
2023-04-28T16:38:41.143Z,3.30
2023-04-28T16:41:26.913Z,3.85
2023-04-28T16:44:12.324Z,3.70
2023-04-28T16:47:01.037Z,3.90
2023-04-28T16:49:46.809Z,3.95
2023-04-28T16:52:33.069Z,4.32
2023-04-28T16:55:18.923Z,4.60
2023-04-28T16:58:04.737Z,4.35
2023-04-28T17:00:50.020Z,4.07
2023-04-28T17:03:41.224Z,4.78
2023-04-28T17:06:28.138Z,4.35
2023-04-28T17:09:13.618Z,4.72
2023-04-28T17:11:59.404Z,4.53
2023-04-28T17:14:45.226Z,4.95
2023-04-28T17:17:30.392Z,4.82
2023-04-28T17:20:19.486Z,5.05
2023-04-28T17:23:04.867Z,5.28
2023-04-28T17:25:50.574Z,5.57
2023-04-28T17:28:35.970Z,5.40
2023-04-28T17:31:22.391Z,5.05
2023-04-28T17:34:07.849Z,5.70
2023-04-28T17:36:53.008Z,5.55
2023-04-28T17:39:38.908Z,5.15
2023-04-28T17:42:24.864Z,5.55
2023-04-28T17:45:11.310Z,5.30
2023-04-28T17:48:00.187Z,5.32
2023-04-28T17:50:46.563Z,5.00
2023-04-28T17:53:31.812Z,5.10
2023-04-28T17:56:17.394Z,6.40
2023-04-28T17:59:03.298Z,5.78
2023-04-28T18:01:48.559Z,5.82
2023-04-28T18:04:33.836Z,5.75
2023-04-28T18:07:19.681Z,6.22
2023-04-28T18:10:05.982Z,6.00
2023-04-28T18:12:53.584Z,6.45
2023-04-28T18:15:39.438Z,6.47
2023-04-28T18:18:25.119Z,6.47
2023-04-28T18:21:11.870Z,6.68
2023-04-28T18:23:57.580Z,6.40
2023-04-28T18:26:42.973Z,7.15
2023-04-28T18:29:29.504Z,6.40
2023-04-28T18:32:15.271Z,7.47
2023-04-28T18:35:01.104Z,7.60
2023-04-28T18:37:47.170Z,7.13
2023-04-28T18:40:34.186Z,7.00
2023-04-28T18:43:19.862Z,7.03
2023-04-28T18:46:06.539Z,7.10
2023-04-28T18:48:53.022Z,7.30
2023-04-28T18:51:39.047Z,7.60
2023-04-28T18:54:26.780Z,7.03
2023-04-28T18:57:12.858Z,9.48
2023-04-28T18:59:59.482Z,7.40
2023-04-28T19:02:45.323Z,7.50
2023-04-28T19:05:31.404Z,7.03
2023-04-28T19:08:16.830Z,6.70
2023-04-28T19:11:02.588Z,7.20
2023-04-28T19:13:48.578Z,7.53
2023-04-28T19:16:34.467Z,8.05
2023-04-28T19:19:20.297Z,8.85
2023-04-28T19:22:05.717Z,10.75
2023-04-28T19:24:50.980Z,8.48
2023-04-28T19:27:38.325Z,6.85
2023-04-28T19:30:23.724Z,10.73
2023-04-28T19:33:09.227Z,12.35
2023-04-28T19:35:54.893Z,8.38
2023-04-28T19:38:40.515Z,8.07
2023-04-28T19:41:27.834Z,9.05
2023-04-28T19:44:13.091Z,9.60
2023-04-28T19:47:03.905Z,9.98
2023-04-28T19:49:51.232Z,8.75
2023-04-28T19:52:37.580Z,9.30
2023-04-28T19:55:24.275Z,11.23
2023-04-28T19:58:10.887Z,9.43
2023-04-28T20:00:56.628Z,10.35
2023-04-28T20:03:42.085Z,9.27
2023-04-28T20:06:27.768Z,8.45
2023-04-28T20:09:13.283Z,9.48
2023-04-28T20:11:58.832Z,8.57
2023-04-28T20:14:44.831Z,10.05
2023-04-28T20:17:30.921Z,9.38
2023-04-28T20:20:16.708Z,8.68
2023-04-28T20:23:02.329Z,10.52
2023-04-28T20:25:47.829Z,9.40
2023-04-28T20:28:33.438Z,9.27
2023-04-28T20:31:18.890Z,9.40
2023-04-28T20:34:04.849Z,9.68
2023-04-28T20:36:51.622Z,9.20
2023-04-28T20:39:37.147Z,8.90
2023-04-28T20:42:23.279Z,8.98
2023-04-28T20:45:09.353Z,8.68
2023-04-28T20:47:56.475Z,8.13
2023-04-28T20:50:43.733Z,8.48
2023-04-28T20:53:31.416Z,8.05
2023-04-28T20:56:18.170Z,8.13
2023-04-28T20:59:03.640Z,8.07
2023-04-28T21:01:49.090Z,7.97
2023-04-28T21:04:34.465Z,8.20
2023-04-28T21:07:19.911Z,8.95
2023-04-28T21:10:06.060Z,10.30
2023-04-28T21:12:51.618Z,10.48
2023-04-28T21:15:38.024Z,11.48
2023-04-28T21:18:23.218Z,11.05
2023-04-28T21:21:09.095Z,10.13
2023-04-28T21:23:55.057Z,10.13
2023-04-28T21:26:40.906Z,9.68
2023-04-28T21:29:27.552Z,9.82
2023-04-28T21:32:16.431Z,9.07
2023-04-28T21:35:02.154Z,7.78
2023-04-28T21:37:48.122Z,8.60
2023-04-28T21:40:33.488Z,9.85
2023-04-28T21:43:20.070Z,14.25
2023-04-28T21:46:05.462Z,14.68
2023-04-28T21:48:50.786Z,10.90
2023-04-28T21:51:36.642Z,9.90
2023-04-28T21:54:22.388Z,10.68
2023-04-28T21:57:08.365Z,11.18
2023-04-28T21:59:53.901Z,11.02
2023-04-28T22:02:39.941Z,11.65
2023-04-28T22:05:25.856Z,9.60
2023-04-28T22:08:11.419Z,8.90
2023-04-28T22:10:57.077Z,8.88
2023-04-28T22:13:42.595Z,8.35
2023-04-28T22:16:28.268Z,8.75
2023-04-28T22:19:13.894Z,6.85
2023-04-28T22:21:59.234Z,7.47
2023-04-28T22:24:44.613Z,8.43
2023-04-28T22:27:30.619Z,9.65
2023-04-28T22:30:16.642Z,8.85
2023-04-28T22:33:02.485Z,8.38
2023-04-28T22:35:47.890Z,13.13
2023-04-28T22:38:33.825Z,15.55
2023-04-28T22:41:18.969Z,11.93
2023-04-28T22:44:04.625Z,11.20
2023-04-28T22:46:50.454Z,13.90
2023-04-28T22:49:35.928Z,17.88
2023-04-28T22:52:22.099Z,18.38
2023-04-28T22:55:08.504Z,19.00
2023-04-28T22:57:53.843Z,17.58
2023-04-28T23:00:39.312Z,16.73
2023-04-28T23:03:24.788Z,12.90
2023-04-28T23:06:10.443Z,12.93
2023-04-28T23:08:56.248Z,12.43
2023-04-28T23:11:42.028Z,19.13
2023-04-28T23:14:27.483Z,21.38
2023-04-28T23:17:13.024Z,15.57
2023-04-28T23:19:58.476Z,12.20
2023-04-28T23:22:43.876Z,12.07
2023-04-28T23:25:29.535Z,10.52
2023-04-28T23:28:15.020Z,9.38
2023-04-28T23:31:00.874Z,8.95
2023-04-28T23:33:46.611Z,7.47
2023-04-28T23:36:32.381Z,8.00
2023-04-28T23:39:18.239Z,7.43
2023-04-28T23:42:04.124Z,7.30
2023-04-28T23:44:50.146Z,7.10
2023-04-28T23:47:35.680Z,7.47
2023-04-28T23:50:21.238Z,8.20
2023-04-28T23:53:06.657Z,8.27
2023-04-28T23:55:52.019Z,7.40
2023-04-28T23:58:37.956Z,7.90
